San Eduardo, Argentina
Current Conditions -  °F | °C
As of 9:00 PM on Sunday 25 Jan 2015 (Local Time) from SAAR Reporting Station
Clear Clear  
Wind Chill: 28°   Ceiling: Unl
Heat Index: 29°   Visibility: 6mi
Dew Point: 19°   Wind: 2mph
Humidity: 58%   Direction: 90°E
Pressure: 29.77"   Gusts: NA
Location:  33.88°S, 62.12°W
Report Text: SAAR 260000Z 09002KT CAVOK 28/19 Q1008
Loading
Personal Weather Stations






























Interactive Weather Map New forecast layout! Learn more

10-Day Weather Forecast

Advertisements
Track Severe Weather on mobile